This is the latest recevied weather packets stored in our database for station/object KF6RAL-6. If no packets are shown the sender has not sent any weather packets the latest 10 day(s).
| Time | Temp. | Humidity | Pressure | Rain* | Wind** | Luminosity | Snow |
|---|---|---|---|---|---|---|---|
| 1787966728 | 26.11° C | 57% | 1013.8 hPa | 0 mm | - | - | - |
| 1787966307 | 27.22° C | 52% | 1014.7 hPa | 0 mm | - | - | - |
| 1787965465 | 28.89° C | 44% | 1013.6 hPa | 0 mm | - | - | - |
| 1787965044 | 28.89° C | 44% | 1013.4 hPa | 0 mm | - | - | - |
| 1787964623 | 28.89° C | 45% | 1013.1 hPa | 0 mm | - | - | - |
| 1787964204 | 28.33° C | 45% | 1013.1 hPa | 0 mm | - | - | - |
| 1787963782 | 28.89° C | 45% | 1013.1 hPa | 0 mm | - | - | - |
| 1787963362 | 29.44° C | 43% | 1013.2 hPa | 0 mm | - | - | - |
| 1787962941 | 30.56° C | 40% | 1013.2 hPa | 0 mm | - | - | - |
| 1787962518 | 30.56° C | 39% | 1013.1 hPa | 0 mm | - | - | - |
| 1787962097 | 30° C | 37% | 1013.2 hPa | 0 mm | - | - | - |
| 1787961255 | 29.44° C | 42% | 1013.1 hPa | 0 mm | - | - | - |
| 1787960836 | 29.44° C | 41% | 1013 hPa | 0 mm | - | - | - |
| 1787960413 | 29.44° C | 41% | 1013 hPa | 0 mm | - | - | - |
| 1787959993 | 29.44° C | 41% | 1013 hPa | 0 mm | - | - | - |
| 1787959571 | 29.44° C | 43% | 1013.9 hPa | 0 mm | - | - | - |
| 1787959150 | 29.44° C | 37% | 1014.1 hPa | 0 mm | - | - | - |
| 1787958729 | 30° C | 37% | 1014.2 hPa | 0 mm | - | - | - |
| 1787958308 | 29.44° C | 38% | 1013.7 hPa | 0 mm | - | - | - |
| 1787957468 | 27.22° C | 52% | 1014 hPa | 0 mm | - | - | - |
| 1787957045 | 27.22° C | 53% | 1014.5 hPa | 0 mm | - | - | - |
| 1787956624 | 27.22° C | 54% | 1015.2 hPa | 0 mm | - | - | - |
| 1787956203 | 27.22° C | 51% | 1014.7 hPa | 0 mm | - | - | - |
| 1787955782 | 27.78° C | 52% | 1014 hPa | 0 mm | - | - | - |
| 1787955361 | 27.78° C | 48% | 1013.6 hPa | 0 mm | - | - | - |
* Rain latest hour (hover to see other rain measurements)
** Current wind speed in m/s (hover to see current wind gust speed)